sensor_id;sensor_type;location;lat;lon;timestamp;temperature;humidity
76305;DHT22;65111;50.536;19.204;2022-11-15T00:02:07;4.40;96.30
76305;DHT22;65111;50.536;19.204;2022-11-15T00:04:33;4.60;96.40
76305;DHT22;65111;50.536;19.204;2022-11-15T00:06:59;4.50;96.70
76305;DHT22;65111;50.536;19.204;2022-11-15T00:09:26;4.30;96.50
76305;DHT22;65111;50.536;19.204;2022-11-15T00:11:52;4.40;96.50
76305;DHT22;65111;50.536;19.204;2022-11-15T00:14:18;4.30;96.30
76305;DHT22;65111;50.536;19.204;2022-11-15T00:16:45;4.30;96.40
76305;DHT22;65111;50.536;19.204;2022-11-15T00:19:11;4.00;96.30
76305;DHT22;65111;50.536;19.204;2022-11-15T00:21:38;4.30;96.30
76305;DHT22;65111;50.536;19.204;2022-11-15T00:24:05;4.00;96.40
76305;DHT22;65111;50.536;19.204;2022-11-15T00:26:31;4.10;96.60
76305;DHT22;65111;50.536;19.204;2022-11-15T00:28:58;4.00;96.60
76305;DHT22;65111;50.536;19.204;2022-11-15T00:31:24;3.80;96.50
76305;DHT22;65111;50.536;19.204;2022-11-15T00:33:50;3.70;96.70
76305;DHT22;65111;50.536;19.204;2022-11-15T00:36:16;3.90;96.70
76305;DHT22;65111;50.536;19.204;2022-11-15T00:38:43;3.70;96.70
76305;DHT22;65111;50.536;19.204;2022-11-15T00:41:09;3.60;96.80
76305;DHT22;65111;50.536;19.204;2022-11-15T00:43:36;3.90;96.80
76305;DHT22;65111;50.536;19.204;2022-11-15T00:46:02;3.60;96.90
76305;DHT22;65111;50.536;19.204;2022-11-15T00:48:29;3.70;96.80
76305;DHT22;65111;50.536;19.204;2022-11-15T00:50:55;3.50;97.00
76305;DHT22;65111;50.536;19.204;2022-11-15T00:53:22;3.50;97.00
76305;DHT22;65111;50.536;19.204;2022-11-15T00:55:48;3.50;97.20
76305;DHT22;65111;50.536;19.204;2022-11-15T00:58:14;3.40;97.20
76305;DHT22;65111;50.536;19.204;2022-11-15T01:00:41;3.30;97.30
76305;DHT22;65111;50.536;19.204;2022-11-15T01:03:07;3.30;97.50
76305;DHT22;65111;50.536;19.204;2022-11-15T01:05:33;3.20;97.40
76305;DHT22;65111;50.536;19.204;2022-11-15T01:07:59;3.30;97.30
76305;DHT22;65111;50.536;19.204;2022-11-15T01:10:26;3.30;97.40
76305;DHT22;65111;50.536;19.204;2022-11-15T01:12:52;3.30;97.40
76305;DHT22;65111;50.536;19.204;2022-11-15T01:15:18;3.40;97.40
76305;DHT22;65111;50.536;19.204;2022-11-15T01:17:45;3.10;97.40
76305;DHT22;65111;50.536;19.204;2022-11-15T01:20:12;3.30;97.40
76305;DHT22;65111;50.536;19.204;2022-11-15T01:22:38;3.30;97.40
76305;DHT22;65111;50.536;19.204;2022-11-15T01:25:05;3.20;97.40
76305;DHT22;65111;50.536;19.204;2022-11-15T01:27:31;3.10;97.30
76305;DHT22;65111;50.536;19.204;2022-11-15T01:29:58;3.20;97.30
76305;DHT22;65111;50.536;19.204;2022-11-15T01:32:24;3.10;97.30
76305;DHT22;65111;50.536;19.204;2022-11-15T01:34:50;3.10;97.30
76305;DHT22;65111;50.536;19.204;2022-11-15T01:37:17;3.10;97.40
76305;DHT22;65111;50.536;19.204;2022-11-15T01:39:43;3.10;97.50
76305;DHT22;65111;50.536;19.204;2022-11-15T01:42:13;3.00;97.40
76305;DHT22;65111;50.536;19.204;2022-11-15T01:50:05;2.90;97.50
76305;DHT22;65111;50.536;19.204;2022-11-15T01:52:33;2.90;97.70
76305;DHT22;65111;50.536;19.204;2022-11-15T01:55:11;3.10;97.70
76305;DHT22;65111;50.536;19.204;2022-11-15T01:57:37;2.90;97.80
76305;DHT22;65111;50.536;19.204;2022-11-15T02:00:06;3.00;98.00
76305;DHT22;65111;50.536;19.204;2022-11-15T02:02:33;3.00;97.90
76305;DHT22;65111;50.536;19.204;2022-11-15T02:05:00;3.00;98.00
76305;DHT22;65111;50.536;19.204;2022-11-15T02:07:28;2.80;98.10
76305;DHT22;65111;50.536;19.204;2022-11-15T02:09:58;2.90;98.10
76305;DHT22;65111;50.536;19.204;2022-11-15T02:12:25;3.00;98.00
76305;DHT22;65111;50.536;19.204;2022-11-15T02:14:53;2.90;98.00
76305;DHT22;65111;50.536;19.204;2022-11-15T02:37:03;2.90;98.20
76305;DHT22;65111;50.536;19.204;2022-11-15T02:39:34;3.10;98.00
76305;DHT22;65111;50.536;19.204;2022-11-15T02:42:04;3.00;98.00
76305;DHT22;65111;50.536;19.204;2022-11-15T02:44:38;3.00;97.80
76305;DHT22;65111;50.536;19.204;2022-11-15T02:47:07;2.90;97.70
76305;DHT22;65111;50.536;19.204;2022-11-15T02:52:40;2.80;97.90
76305;DHT22;65111;50.536;19.204;2022-11-15T03:01:03;2.70;98.10
76305;DHT22;65111;50.536;19.204;2022-11-15T03:03:41;2.70;98.10
76305;DHT22;65111;50.536;19.204;2022-11-15T03:06:38;2.50;98.10
76305;DHT22;65111;50.536;19.204;2022-11-15T03:11:55;2.60;98.10
76305;DHT22;65111;50.536;19.204;2022-11-15T03:17:25;2.50;98.10
76305;DHT22;65111;50.536;19.204;2022-11-15T03:19:54;2.50;98.20
76305;DHT22;65111;50.536;19.204;2022-11-15T03:22:24;2.50;98.30
76305;DHT22;65111;50.536;19.204;2022-11-15T03:25:02;2.40;98.40
76305;DHT22;65111;50.536;19.204;2022-11-15T03:27:27;2.50;98.40
76305;DHT22;65111;50.536;19.204;2022-11-15T03:29:57;2.50;98.40
76305;DHT22;65111;50.536;19.204;2022-11-15T03:32:27;2.40;98.40
76305;DHT22;65111;50.536;19.204;2022-11-15T03:35:13;2.60;98.30
76305;DHT22;65111;50.536;19.204;2022-11-15T03:37:40;2.50;98.30
76305;DHT22;65111;50.536;19.204;2022-11-15T03:40:07;2.40;98.20
76305;DHT22;65111;50.536;19.204;2022-11-15T03:42:43;2.40;98.20
76305;DHT22;65111;50.536;19.204;2022-11-15T03:47:49;2.60;98.30
76305;DHT22;65111;50.536;19.204;2022-11-15T03:50:18;2.40;98.40
76305;DHT22;65111;50.536;19.204;2022-11-15T03:52:46;2.30;98.40
76305;DHT22;65111;50.536;19.204;2022-11-15T03:55:16;2.40;98.50
76305;DHT22;65111;50.536;19.204;2022-11-15T03:57:43;2.30;98.70
76305;DHT22;65111;50.536;19.204;2022-11-15T04:00:10;2.30;98.60
76305;DHT22;65111;50.536;19.204;2022-11-15T04:02:37;2.40;98.70
76305;DHT22;65111;50.536;19.204;2022-11-15T04:05:04;2.40;98.50
76305;DHT22;65111;50.536;19.204;2022-11-15T04:07:31;2.50;98.60
76305;DHT22;65111;50.536;19.204;2022-11-15T04:09:57;2.40;98.60
76305;DHT22;65111;50.536;19.204;2022-11-15T04:12:34;2.50;98.50
76305;DHT22;65111;50.536;19.204;2022-11-15T04:15:10;2.40;98.50
76305;DHT22;65111;50.536;19.204;2022-11-15T04:17:42;2.40;98.50
76305;DHT22;65111;50.536;19.204;2022-11-15T04:20:15;2.40;98.40
76305;DHT22;65111;50.536;19.204;2022-11-15T04:23:03;2.50;98.40
76305;DHT22;65111;50.536;19.204;2022-11-15T04:25:50;2.60;98.50
76305;DHT22;65111;50.536;19.204;2022-11-15T04:28:17;2.30;98.60
76305;DHT22;65111;50.536;19.204;2022-11-15T04:30:44;2.40;98.70
76305;DHT22;65111;50.536;19.204;2022-11-15T04:33:10;2.30;98.70
76305;DHT22;65111;50.536;19.204;2022-11-15T04:35:37;2.50;98.80
76305;DHT22;65111;50.536;19.204;2022-11-15T04:38:05;2.30;98.80
76305;DHT22;65111;50.536;19.204;2022-11-15T04:40:32;2.60;98.80
76305;DHT22;65111;50.536;19.204;2022-11-15T04:42:58;2.70;98.80
76305;DHT22;65111;50.536;19.204;2022-11-15T04:45:24;2.40;98.90
76305;DHT22;65111;50.536;19.204;2022-11-15T04:47:50;2.60;98.90
76305;DHT22;65111;50.536;19.204;2022-11-15T04:50:17;2.60;99.00
76305;DHT22;65111;50.536;19.204;2022-11-15T04:52:52;2.60;99.00
76305;DHT22;65111;50.536;19.204;2022-11-15T04:55:18;2.70;98.80
76305;DHT22;65111;50.536;19.204;2022-11-15T04:57:45;2.70;98.90
76305;DHT22;65111;50.536;19.204;2022-11-15T05:00:14;2.50;98.80
76305;DHT22;65111;50.536;19.204;2022-11-15T05:02:41;2.60;98.90
76305;DHT22;65111;50.536;19.204;2022-11-15T05:05:25;2.60;98.70
76305;DHT22;65111;50.536;19.204;2022-11-15T05:07:51;2.80;98.70
76305;DHT22;65111;50.536;19.204;2022-11-15T05:10:18;2.80;98.70
76305;DHT22;65111;50.536;19.204;2022-11-15T05:12:44;2.60;98.80
76305;DHT22;65111;50.536;19.204;2022-11-15T05:15:12;2.80;98.70
76305;DHT22;65111;50.536;19.204;2022-11-15T05:17:38;2.80;98.80
76305;DHT22;65111;50.536;19.204;2022-11-15T05:20:06;2.80;98.80
76305;DHT22;65111;50.536;19.204;2022-11-15T05:22:32;2.80;98.80
76305;DHT22;65111;50.536;19.204;2022-11-15T05:24:58;2.80;98.70
76305;DHT22;65111;50.536;19.204;2022-11-15T05:27:25;2.80;98.70
76305;DHT22;65111;50.536;19.204;2022-11-15T05:29:51;2.80;98.50
76305;DHT22;65111;50.536;19.204;2022-11-15T05:32:18;2.90;98.70
76305;DHT22;65111;50.536;19.204;2022-11-15T05:34:45;2.70;98.70
76305;DHT22;65111;50.536;19.204;2022-11-15T05:37:13;2.80;98.50
76305;DHT22;65111;50.536;19.204;2022-11-15T05:39:40;2.90;98.60
76305;DHT22;65111;50.536;19.204;2022-11-15T05:42:09;2.90;98.50
76305;DHT22;65111;50.536;19.204;2022-11-15T05:44:36;2.90;98.40
76305;DHT22;65111;50.536;19.204;2022-11-15T05:47:05;2.90;98.40
76305;DHT22;65111;50.536;19.204;2022-11-15T05:49:35;2.80;98.40
76305;DHT22;65111;50.536;19.204;2022-11-15T05:52:05;2.80;98.30
76305;DHT22;65111;50.536;19.204;2022-11-15T05:54:32;2.70;98.50
76305;DHT22;65111;50.536;19.204;2022-11-15T05:56:59;2.70;98.60
76305;DHT22;65111;50.536;19.204;2022-11-15T05:59:28;2.60;98.60
76305;DHT22;65111;50.536;19.204;2022-11-15T06:01:54;2.60;98.60
76305;DHT22;65111;50.536;19.204;2022-11-15T06:04:20;2.80;98.50
76305;DHT22;65111;50.536;19.204;2022-11-15T06:06:46;2.80;98.50
76305;DHT22;65111;50.536;19.204;2022-11-15T06:09:13;2.60;98.40
76305;DHT22;65111;50.536;19.204;2022-11-15T06:11:39;2.80;98.50
76305;DHT22;65111;50.536;19.204;2022-11-15T06:14:05;2.70;98.50
76305;DHT22;65111;50.536;19.204;2022-11-15T06:16:31;2.80;98.40
76305;DHT22;65111;50.536;19.204;2022-11-15T06:18:58;3.00;98.40
76305;DHT22;65111;50.536;19.204;2022-11-15T06:21:24;3.00;98.40
76305;DHT22;65111;50.536;19.204;2022-11-15T06:23:53;2.90;98.50
76305;DHT22;65111;50.536;19.204;2022-11-15T06:26:19;3.00;98.50
76305;DHT22;65111;50.536;19.204;2022-11-15T06:28:46;3.00;98.70
76305;DHT22;65111;50.536;19.204;2022-11-15T06:31:12;3.20;98.60
76305;DHT22;65111;50.536;19.204;2022-11-15T06:33:39;3.20;98.50
76305;DHT22;65111;50.536;19.204;2022-11-15T06:36:09;3.20;98.50
76305;DHT22;65111;50.536;19.204;2022-11-15T06:38:36;3.40;98.40
76305;DHT22;65111;50.536;19.204;2022-11-15T06:41:04;3.30;98.30
76305;DHT22;65111;50.536;19.204;2022-11-15T06:43:31;3.30;98.20
76305;DHT22;65111;50.536;19.204;2022-11-15T06:45:59;3.50;98.00
76305;DHT22;65111;50.536;19.204;2022-11-15T06:48:27;3.70;97.90
76305;DHT22;65111;50.536;19.204;2022-11-15T06:50:54;3.70;97.80
76305;DHT22;65111;50.536;19.204;2022-11-15T06:53:21;4.10;97.90
76305;DHT22;65111;50.536;19.204;2022-11-15T06:55:48;4.20;97.60
76305;DHT22;65111;50.536;19.204;2022-11-15T06:58:15;4.30;96.90
76305;DHT22;65111;50.536;19.204;2022-11-15T07:00:42;4.60;96.00
76305;DHT22;65111;50.536;19.204;2022-11-15T07:03:09;4.70;95.50
76305;DHT22;65111;50.536;19.204;2022-11-15T07:05:35;5.30;94.60
76305;DHT22;65111;50.536;19.204;2022-11-15T07:08:02;5.50;93.80
76305;DHT22;65111;50.536;19.204;2022-11-15T07:10:28;6.00;92.90
76305;DHT22;65111;50.536;19.204;2022-11-15T07:12:55;6.60;91.60
76305;DHT22;65111;50.536;19.204;2022-11-15T07:15:24;7.00;90.10
76305;DHT22;65111;50.536;19.204;2022-11-15T07:17:51;7.40;89.10
76305;DHT22;65111;50.536;19.204;2022-11-15T07:20:18;7.90;88.60
76305;DHT22;65111;50.536;19.204;2022-11-15T07:22:45;8.10;87.40
76305;DHT22;65111;50.536;19.204;2022-11-15T07:25:11;8.20;86.40
76305;DHT22;65111;50.536;19.204;2022-11-15T07:27:38;8.60;85.40
76305;DHT22;65111;50.536;19.204;2022-11-15T07:30:05;9.00;84.70
76305;DHT22;65111;50.536;19.204;2022-11-15T07:32:32;9.60;83.10
76305;DHT22;65111;50.536;19.204;2022-11-15T07:34:58;10.40;82.20
76305;DHT22;65111;50.536;19.204;2022-11-15T07:37:24;11.00;80.10
76305;DHT22;65111;50.536;19.204;2022-11-15T07:39:51;11.60;77.70
76305;DHT22;65111;50.536;19.204;2022-11-15T07:42:17;11.90;76.70
76305;DHT22;65111;50.536;19.204;2022-11-15T07:45:02;12.40;76.20
76305;DHT22;65111;50.536;19.204;2022-11-15T07:47:29;13.10;73.20
76305;DHT22;65111;50.536;19.204;2022-11-15T07:49:55;13.80;73.20
76305;DHT22;65111;50.536;19.204;2022-11-15T07:52:21;14.40;70.30
76305;DHT22;65111;50.536;19.204;2022-11-15T07:54:48;15.30;68.20
76305;DHT22;65111;50.536;19.204;2022-11-15T07:57:14;16.70;64.00
76305;DHT22;65111;50.536;19.204;2022-11-15T07:59:40;18.10;59.60
76305;DHT22;65111;50.536;19.204;2022-11-15T08:02:08;19.40;57.90
76305;DHT22;65111;50.536;19.204;2022-11-15T08:04:35;20.50;55.90
76305;DHT22;65111;50.536;19.204;2022-11-15T08:07:01;21.30;53.00
76305;DHT22;65111;50.536;19.204;2022-11-15T08:09:28;21.80;50.30
76305;DHT22;65111;50.536;19.204;2022-11-15T08:11:54;22.40;50.20
76305;DHT22;65111;50.536;19.204;2022-11-15T08:14:20;23.00;48.20
76305;DHT22;65111;50.536;19.204;2022-11-15T08:16:47;23.40;47.00
76305;DHT22;65111;50.536;19.204;2022-11-15T08:19:14;23.90;46.30
76305;DHT22;65111;50.536;19.204;2022-11-15T08:21:40;24.30;45.60
76305;DHT22;65111;50.536;19.204;2022-11-15T08:24:09;25.00;45.00
76305;DHT22;65111;50.536;19.204;2022-11-15T08:26:36;26.00;43.80
76305;DHT22;65111;50.536;19.204;2022-11-15T08:29:02;26.80;42.30
76305;DHT22;65111;50.536;19.204;2022-11-15T08:31:28;27.50;41.50
76305;DHT22;65111;50.536;19.204;2022-11-15T08:33:55;28.10;40.90
76305;DHT22;65111;50.536;19.204;2022-11-15T08:36:40;28.50;40.00
76305;DHT22;65111;50.536;19.204;2022-11-15T08:39:13;28.50;38.90
76305;DHT22;65111;50.536;19.204;2022-11-15T08:41:38;28.40;39.10
76305;DHT22;65111;50.536;19.204;2022-11-15T08:44:04;28.60;38.30
76305;DHT22;65111;50.536;19.204;2022-11-15T08:46:30;28.70;39.00
76305;DHT22;65111;50.536;19.204;2022-11-15T08:48:57;29.10;38.30
76305;DHT22;65111;50.536;19.204;2022-11-15T08:51:23;29.50;38.00
76305;DHT22;65111;50.536;19.204;2022-11-15T08:53:49;30.20;38.10
76305;DHT22;65111;50.536;19.204;2022-11-15T08:56:16;30.80;37.50
76305;DHT22;65111;50.536;19.204;2022-11-15T08:58:42;31.00;36.70
76305;DHT22;65111;50.536;19.204;2022-11-15T09:01:17;31.20;36.50
76305;DHT22;65111;50.536;19.204;2022-11-15T09:03:43;31.30;36.30
76305;DHT22;65111;50.536;19.204;2022-11-15T09:06:10;30.90;36.10
76305;DHT22;65111;50.536;19.204;2022-11-15T09:08:37;30.30;36.10
76305;DHT22;65111;50.536;19.204;2022-11-15T09:11:09;29.80;36.70
76305;DHT22;65111;50.536;19.204;2022-11-15T09:13:33;29.70;36.60
76305;DHT22;65111;50.536;19.204;2022-11-15T09:16:00;29.60;36.90
76305;DHT22;65111;50.536;19.204;2022-11-15T09:18:27;29.90;36.90
76305;DHT22;65111;50.536;19.204;2022-11-15T09:20:58;30.50;36.30
76305;DHT22;65111;50.536;19.204;2022-11-15T09:23:25;31.10;36.10
76305;DHT22;65111;50.536;19.204;2022-11-15T09:25:52;31.30;36.00
76305;DHT22;65111;50.536;19.204;2022-11-15T09:28:20;31.80;36.00
76305;DHT22;65111;50.536;19.204;2022-11-15T09:30:47;32.10;35.70
76305;DHT22;65111;50.536;19.204;2022-11-15T09:33:13;32.30;34.90
76305;DHT22;65111;50.536;19.204;2022-11-15T09:35:39;32.30;35.30
76305;DHT22;65111;50.536;19.204;2022-11-15T09:38:06;32.50;35.00
76305;DHT22;65111;50.536;19.204;2022-11-15T09:40:36;32.60;34.50
76305;DHT22;65111;50.536;19.204;2022-11-15T09:43:25;32.30;35.00
76305;DHT22;65111;50.536;19.204;2022-11-15T09:46:09;32.50;34.90
76305;DHT22;65111;50.536;19.204;2022-11-15T09:51:04;33.00;34.40
76305;DHT22;65111;50.536;19.204;2022-11-15T09:53:46;33.10;34.60
76305;DHT22;65111;50.536;19.204;2022-11-15T09:56:15;33.30;34.00
76305;DHT22;65111;50.536;19.204;2022-11-15T10:01:39;33.30;34.20
76305;DHT22;65111;50.536;19.204;2022-11-15T10:04:05;33.00;33.70
76305;DHT22;65111;50.536;19.204;2022-11-15T10:06:34;32.70;34.30
76305;DHT22;65111;50.536;19.204;2022-11-15T10:09:11;32.50;33.90
76305;DHT22;65111;50.536;19.204;2022-11-15T10:11:51;32.20;34.10
76305;DHT22;65111;50.536;19.204;2022-11-15T10:14:24;32.20;34.40
76305;DHT22;65111;50.536;19.204;2022-11-15T10:20:06;31.80;34.40
76305;DHT22;65111;50.536;19.204;2022-11-15T10:25:20;32.40;34.10
76305;DHT22;65111;50.536;19.204;2022-11-15T10:30:23;32.40;34.30
76305;DHT22;65111;50.536;19.204;2022-11-15T10:32:50;32.20;34.40
76305;DHT22;65111;50.536;19.204;2022-11-15T10:35:20;32.30;34.10
76305;DHT22;65111;50.536;19.204;2022-11-15T10:37:47;32.00;34.00
76305;DHT22;65111;50.536;19.204;2022-11-15T10:40:22;31.80;34.60
76305;DHT22;65111;50.536;19.204;2022-11-15T10:43:04;31.70;34.70
76305;DHT22;65111;50.536;19.204;2022-11-15T10:45:28;31.80;34.50
76305;DHT22;65111;50.536;19.204;2022-11-15T10:50:47;32.10;34.50
76305;DHT22;65111;50.536;19.204;2022-11-15T10:55:52;32.80;33.60
76305;DHT22;65111;50.536;19.204;2022-11-15T10:58:22;32.50;33.80
76305;DHT22;65111;50.536;19.204;2022-11-15T11:00:52;32.50;34.10
76305;DHT22;65111;50.536;19.204;2022-11-15T11:03:33;32.60;34.00
76305;DHT22;65111;50.536;19.204;2022-11-15T11:06:17;32.30;33.10
76305;DHT22;65111;50.536;19.204;2022-11-15T11:09:03;32.00;33.00
76305;DHT22;65111;50.536;19.204;2022-11-15T11:11:46;31.10;33.80
76305;DHT22;65111;50.536;19.204;2022-11-15T11:14:21;30.80;34.10
76305;DHT22;65111;50.536;19.204;2022-11-15T11:17:13;30.20;34.20
76305;DHT22;65111;50.536;19.204;2022-11-15T11:22:30;29.30;34.70
76305;DHT22;65111;50.536;19.204;2022-11-15T11:39:44;27.40;36.10
76305;DHT22;65111;50.536;19.204;2022-11-15T11:47:30;26.20;37.70
76305;DHT22;65111;50.536;19.204;2022-11-15T11:55:49;26.60;37.30
76305;DHT22;65111;50.536;19.204;2022-11-15T11:58:35;26.20;37.70
76305;DHT22;65111;50.536;19.204;2022-11-15T12:01:12;26.10;38.00
76305;DHT22;65111;50.536;19.204;2022-11-15T12:03:48;26.00;37.80
76305;DHT22;65111;50.536;19.204;2022-11-15T12:12:05;24.20;39.90
76305;DHT22;65111;50.536;19.204;2022-11-15T12:14:38;23.80;40.80
76305;DHT22;65111;50.536;19.204;2022-11-15T12:17:02;23.30;41.40
76305;DHT22;65111;50.536;19.204;2022-11-15T12:19:29;22.90;42.10
76305;DHT22;65111;50.536;19.204;2022-11-15T12:24:53;23.00;42.20
76305;DHT22;65111;50.536;19.204;2022-11-15T12:29:58;23.30;42.00
76305;DHT22;65111;50.536;19.204;2022-11-15T12:32:28;23.40;41.90
76305;DHT22;65111;50.536;19.204;2022-11-15T12:34:55;23.70;41.50
76305;DHT22;65111;50.536;19.204;2022-11-15T12:45:32;23.00;42.30
76305;DHT22;65111;50.536;19.204;2022-11-15T12:50:55;22.20;43.40
76305;DHT22;65111;50.536;19.204;2022-11-15T12:58:45;20.60;46.40
76305;DHT22;65111;50.536;19.204;2022-11-15T13:15:01;17.30;53.60
76305;DHT22;65111;50.536;19.204;2022-11-15T13:17:41;16.60;55.80
76305;DHT22;65111;50.536;19.204;2022-11-15T13:36:05;13.50;63.60
76305;DHT22;65111;50.536;19.204;2022-11-15T13:38:33;13.20;63.70
76305;DHT22;65111;50.536;19.204;2022-11-15T13:43:39;12.70;64.20
76305;DHT22;65111;50.536;19.204;2022-11-15T13:46:16;12.50;66.30
76305;DHT22;65111;50.536;19.204;2022-11-15T13:48:43;12.30;66.10
76305;DHT22;65111;50.536;19.204;2022-11-15T13:56:44;11.70;67.00
76305;DHT22;65111;50.536;19.204;2022-11-15T13:59:24;11.60;67.50
76305;DHT22;65111;50.536;19.204;2022-11-15T14:01:46;11.60;68.30
76305;DHT22;65111;50.536;19.204;2022-11-15T14:04:17;11.50;67.70
76305;DHT22;65111;50.536;19.204;2022-11-15T14:06:45;11.50;68.40
76305;DHT22;65111;50.536;19.204;2022-11-15T14:09:24;11.30;68.80
76305;DHT22;65111;50.536;19.204;2022-11-15T14:11:57;11.30;69.50
76305;DHT22;65111;50.536;19.204;2022-11-15T14:14:25;11.10;70.00
76305;DHT22;65111;50.536;19.204;2022-11-15T14:16:54;10.90;70.60
76305;DHT22;65111;50.536;19.204;2022-11-15T14:24:37;10.70;71.40
76305;DHT22;65111;50.536;19.204;2022-11-15T14:29:49;10.40;72.40
76305;DHT22;65111;50.536;19.204;2022-11-15T14:32:18;10.40;73.20
76305;DHT22;65111;50.536;19.204;2022-11-15T14:34:46;10.20;74.00
76305;DHT22;65111;50.536;19.204;2022-11-15T14:37:24;10.10;73.60
76305;DHT22;65111;50.536;19.204;2022-11-15T14:39:52;10.00;76.50
76305;DHT22;65111;50.536;19.204;2022-11-15T14:42:19;10.00;75.30
76305;DHT22;65111;50.536;19.204;2022-11-15T14:44:46;10.00;75.30
76305;DHT22;65111;50.536;19.204;2022-11-15T14:47:12;10.00;76.20
76305;DHT22;65111;50.536;19.204;2022-11-15T14:49:39;9.90;76.30
76305;DHT22;65111;50.536;19.204;2022-11-15T14:54:47;9.90;76.40
76305;DHT22;65111;50.536;19.204;2022-11-15T14:57:14;9.90;76.70
76305;DHT22;65111;50.536;19.204;2022-11-15T14:59:40;9.90;77.30
76305;DHT22;65111;50.536;19.204;2022-11-15T15:02:18;9.90;77.40
76305;DHT22;65111;50.536;19.204;2022-11-15T15:04:45;10.00;77.90
76305;DHT22;65111;50.536;19.204;2022-11-15T15:07:12;10.00;78.40
76305;DHT22;65111;50.536;19.204;2022-11-15T15:09:38;10.00;77.50
76305;DHT22;65111;50.536;19.204;2022-11-15T15:12:16;10.00;77.90
76305;DHT22;65111;50.536;19.204;2022-11-15T15:14:44;9.90;78.10
76305;DHT22;65111;50.536;19.204;2022-11-15T15:17:10;9.90;78.10
76305;DHT22;65111;50.536;19.204;2022-11-15T15:19:37;9.80;78.60
76305;DHT22;65111;50.536;19.204;2022-11-15T15:22:04;9.60;79.10
76305;DHT22;65111;50.536;19.204;2022-11-15T15:24:30;9.60;79.60
76305;DHT22;65111;50.536;19.204;2022-11-15T15:26:57;9.40;80.20
76305;DHT22;65111;50.536;19.204;2022-11-15T15:29:23;9.40;81.40
76305;DHT22;65111;50.536;19.204;2022-11-15T15:31:49;9.30;81.30
76305;DHT22;65111;50.536;19.204;2022-11-15T15:34:15;9.20;81.60
76305;DHT22;65111;50.536;19.204;2022-11-15T15:36:42;9.10;81.40
76305;DHT22;65111;50.536;19.204;2022-11-15T15:39:10;9.10;82.40
76305;DHT22;65111;50.536;19.204;2022-11-15T15:41:37;8.90;82.30
76305;DHT22;65111;50.536;19.204;2022-11-15T15:44:03;8.90;83.20
76305;DHT22;65111;50.536;19.204;2022-11-15T15:46:30;8.70;83.40
76305;DHT22;65111;50.536;19.204;2022-11-15T15:48:56;8.80;83.70
76305;DHT22;65111;50.536;19.204;2022-11-15T15:51:22;8.70;84.20
76305;DHT22;65111;50.536;19.204;2022-11-15T15:53:49;8.60;83.30
76305;DHT22;65111;50.536;19.204;2022-11-15T15:56:16;8.60;82.70
76305;DHT22;65111;50.536;19.204;2022-11-15T15:58:42;8.50;82.70
76305;DHT22;65111;50.536;19.204;2022-11-15T16:01:09;8.40;82.80
76305;DHT22;65111;50.536;19.204;2022-11-15T16:03:35;8.30;83.00
76305;DHT22;65111;50.536;19.204;2022-11-15T16:06:02;8.30;82.90
76305;DHT22;65111;50.536;19.204;2022-11-15T16:08:30;8.10;83.60
76305;DHT22;65111;50.536;19.204;2022-11-15T16:10:56;8.00;85.00
76305;DHT22;65111;50.536;19.204;2022-11-15T16:13:22;8.00;84.80
76305;DHT22;65111;50.536;19.204;2022-11-15T16:15:52;8.00;84.90
76305;DHT22;65111;50.536;19.204;2022-11-15T16:18:19;8.10;85.30
76305;DHT22;65111;50.536;19.204;2022-11-15T16:20:47;8.00;85.60
76305;DHT22;65111;50.536;19.204;2022-11-15T16:23:19;7.90;85.80
76305;DHT22;65111;50.536;19.204;2022-11-15T16:25:56;8.00;85.00
76305;DHT22;65111;50.536;19.204;2022-11-15T16:28:29;8.10;84.90
76305;DHT22;65111;50.536;19.204;2022-11-15T16:31:04;8.20;85.30
76305;DHT22;65111;50.536;19.204;2022-11-15T16:33:31;8.40;85.00
76305;DHT22;65111;50.536;19.204;2022-11-15T16:35:58;8.60;85.40
76305;DHT22;65111;50.536;19.204;2022-11-15T16:38:24;8.70;85.10
76305;DHT22;65111;50.536;19.204;2022-11-15T16:40:51;8.70;84.70
76305;DHT22;65111;50.536;19.204;2022-11-15T16:43:17;8.90;85.00
76305;DHT22;65111;50.536;19.204;2022-11-15T16:45:43;8.80;84.60
76305;DHT22;65111;50.536;19.204;2022-11-15T16:48:19;8.90;84.30
76305;DHT22;65111;50.536;19.204;2022-11-15T16:50:43;9.00;85.10
76305;DHT22;65111;50.536;19.204;2022-11-15T16:53:09;9.00;85.00
76305;DHT22;65111;50.536;19.204;2022-11-15T16:55:35;9.10;84.70
76305;DHT22;65111;50.536;19.204;2022-11-15T16:58:02;9.20;84.20
76305;DHT22;65111;50.536;19.204;2022-11-15T17:00:28;9.20;84.30
76305;DHT22;65111;50.536;19.204;2022-11-15T17:02:54;9.30;84.50
76305;DHT22;65111;50.536;19.204;2022-11-15T17:05:22;9.20;84.20
76305;DHT22;65111;50.536;19.204;2022-11-15T17:07:50;9.20;84.20
76305;DHT22;65111;50.536;19.204;2022-11-15T17:10:20;9.30;84.50
76305;DHT22;65111;50.536;19.204;2022-11-15T17:12:47;9.40;84.70
76305;DHT22;65111;50.536;19.204;2022-11-15T17:15:15;9.40;84.70
76305;DHT22;65111;50.536;19.204;2022-11-15T17:17:41;9.50;85.10
76305;DHT22;65111;50.536;19.204;2022-11-15T17:20:12;9.50;85.30
76305;DHT22;65111;50.536;19.204;2022-11-15T17:22:38;9.50;85.20
76305;DHT22;65111;50.536;19.204;2022-11-15T17:25:05;9.50;85.00
76305;DHT22;65111;50.536;19.204;2022-11-15T17:27:32;9.50;85.10
76305;DHT22;65111;50.536;19.204;2022-11-15T17:29:58;9.50;84.80
76305;DHT22;65111;50.536;19.204;2022-11-15T17:32:24;9.50;84.50
76305;DHT22;65111;50.536;19.204;2022-11-15T17:34:51;9.50;84.40
76305;DHT22;65111;50.536;19.204;2022-11-15T17:37:17;9.50;84.50
76305;DHT22;65111;50.536;19.204;2022-11-15T17:39:43;9.60;84.60
76305;DHT22;65111;50.536;19.204;2022-11-15T17:42:10;9.60;84.90
76305;DHT22;65111;50.536;19.204;2022-11-15T17:44:36;9.60;84.80
76305;DHT22;65111;50.536;19.204;2022-11-15T17:47:02;9.60;84.60
76305;DHT22;65111;50.536;19.204;2022-11-15T17:49:28;9.70;84.50
76305;DHT22;65111;50.536;19.204;2022-11-15T17:51:55;9.70;84.50
76305;DHT22;65111;50.536;19.204;2022-11-15T17:54:21;9.70;84.30
76305;DHT22;65111;50.536;19.204;2022-11-15T17:56:47;9.70;84.10
76305;DHT22;65111;50.536;19.204;2022-11-15T17:59:14;9.70;84.30
76305;DHT22;65111;50.536;19.204;2022-11-15T18:01:40;9.70;84.20
76305;DHT22;65111;50.536;19.204;2022-11-15T18:04:08;9.70;84.00
76305;DHT22;65111;50.536;19.204;2022-11-15T18:06:36;9.70;84.40
76305;DHT22;65111;50.536;19.204;2022-11-15T18:09:03;9.70;84.70
76305;DHT22;65111;50.536;19.204;2022-11-15T18:11:35;9.70;85.00
76305;DHT22;65111;50.536;19.204;2022-11-15T18:14:06;9.70;84.80
76305;DHT22;65111;50.536;19.204;2022-11-15T18:16:34;9.70;84.70
76305;DHT22;65111;50.536;19.204;2022-11-15T18:19:02;9.70;85.00
76305;DHT22;65111;50.536;19.204;2022-11-15T18:21:30;9.70;84.70